sensor_id;sensor_type;location;lat;lon;timestamp;P1;P4;P2;P0;N10;N4;N25;N1;N05;TS
71550;SPS30;59367;48.414;9.872;2023-02-01T00:00:41;5.611813545;;5.611813545;;;;;;;
71550;SPS30;59367;48.414;9.872;2023-02-01T00:01:49;5.559762001;;5.559762001;;;;;;;
71550;SPS30;59367;48.414;9.872;2023-02-01T00:02:57;4.832715988;;4.832715988;;;;;;;
71550;SPS30;59367;48.414;9.872;2023-02-01T00:04:05;5.182272911;;5.182272911;;;;;;;
71550;SPS30;59367;48.414;9.872;2023-02-01T00:05:13;5.41153717;;5.41153717;;;;;;;
71550;SPS30;59367;48.414;9.872;2023-02-01T00:06:21;4.526756763;;4.526756763;;;;;;;
71550;SPS30;59367;48.414;9.872;2023-02-01T00:07:28;4.225069523;;4.225069523;;;;;;;
71550;SPS30;59367;48.414;9.872;2023-02-01T00:08:36;4.975287914;;4.975287914;;;;;;;
71550;SPS30;59367;48.414;9.872;2023-02-01T00:09:43;4.619416714;;4.619416714;;;;;;;
71550;SPS30;59367;48.414;9.872;2023-02-01T00:10:56;5.134478569;;5.080937862;;;;;;;
71550;SPS30;59367;48.414;9.872;2023-02-01T00:12:06;4.947258472;;4.880699635;;;;;;;
71550;SPS30;59367;48.414;9.872;2023-02-01T00:13:13;4.673878193;;4.648703098;;;;;;;
71550;SPS30;59367;48.414;9.872;2023-02-01T00:14:21;4.928747654;;4.928706646;;;;;;;
71550;SPS30;59367;48.414;9.872;2023-02-01T00:15:29;4.909926891;;4.909776211;;;;;;;
71550;SPS30;59367;48.414;9.872;2023-02-01T00:16:36;4.40405941;;4.40405941;;;;;;;
71550;SPS30;59367;48.414;9.872;2023-02-01T00:17:44;4.689422607;;4.689422607;;;;;;;
71550;SPS30;59367;48.414;9.872;2023-02-01T00:18:52;4.799236774;;4.799236774;;;;;;;
71550;SPS30;59367;48.414;9.872;2023-02-01T00:20:05;3.990926504;;3.990926504;;;;;;;
71550;SPS30;59367;48.414;9.872;2023-02-01T00:21:14;5.035399914;;5.035399914;;;;;;;
71550;SPS30;59367;48.414;9.872;2023-02-01T00:22:23;4.491952896;;4.491952896;;;;;;;
71550;SPS30;59367;48.414;9.872;2023-02-01T00:23:31;4.108728886;;4.108728886;;;;;;;
71550;SPS30;59367;48.414;9.872;2023-02-01T00:24:40;4.720437527;;4.702306747;;;;;;;
71550;SPS30;59367;48.414;9.872;2023-02-01T00:25:47;4.128569126;;4.117646217;;;;;;;
71550;SPS30;59367;48.414;9.872;2023-02-01T00:26:55;4.34326458;;4.34326458;;;;;;;
71550;SPS30;59367;48.414;9.872;2023-02-01T00:28:03;4.278004169;;4.275752068;;;;;;;
71550;SPS30;59367;48.414;9.872;2023-02-01T00:29:11;5.062249184;;5.022487164;;;;;;;
71550;SPS30;59367;48.414;9.872;2023-02-01T00:30:20;4.712209225;;4.619886398;;;;;;;
71550;SPS30;59367;48.414;9.872;2023-02-01T00:31:28;4.297438145;;4.297438145;;;;;;;
71550;SPS30;59367;48.414;9.872;2023-02-01T00:32:36;4.157785416;;4.157785416;;;;;;;
71550;SPS30;59367;48.414;9.872;2023-02-01T00:33:46;4.159817219;;4.159817219;;;;;;;
71550;SPS30;59367;48.414;9.872;2023-02-01T00:34:53;4.18087244;;4.175621986;;;;;;;
71550;SPS30;59367;48.414;9.872;2023-02-01T00:36:02;4.001923084;;4.001923084;;;;;;;
71550;SPS30;59367;48.414;9.872;2023-02-01T00:37:11;4.720766068;;4.720766068;;;;;;;
71550;SPS30;59367;48.414;9.872;2023-02-01T00:38:18;4.795405388;;4.795405388;;;;;;;
71550;SPS30;59367;48.414;9.872;2023-02-01T00:39:26;3.90393424;;3.90393424;;;;;;;
71550;SPS30;59367;48.414;9.872;2023-02-01T00:40:34;3.077191353;;3.077191353;;;;;;;
71550;SPS30;59367;48.414;9.872;2023-02-01T00:41:41;3.733111382;;3.733111382;;;;;;;
71550;SPS30;59367;48.414;9.872;2023-02-01T00:42:49;3.716007471;;3.716007471;;;;;;;
71550;SPS30;59367;48.414;9.872;2023-02-01T00:43:57;4.141696453;;4.141696453;;;;;;;
71550;SPS30;59367;48.414;9.872;2023-02-01T00:45:04;4.177218437;;4.177218437;;;;;;;
71550;SPS30;59367;48.414;9.872;2023-02-01T00:46:14;3.782847404;;3.779702902;;;;;;;
71550;SPS30;59367;48.414;9.872;2023-02-01T00:47:23;3.792783022;;3.792739391;;;;;;;
71550;SPS30;59367;48.414;9.872;2023-02-01T00:48:30;3.462523222;;3.462523222;;;;;;;
71550;SPS30;59367;48.414;9.872;2023-02-01T00:49:38;3.45650053;;3.449997902;;;;;;;
71550;SPS30;59367;48.414;9.872;2023-02-01T00:50:45;3.626230478;;3.619829655;;;;;;;
71550;SPS30;59367;48.414;9.872;2023-02-01T00:51:53;3.722970724;;3.717786789;;;;;;;
71550;SPS30;59367;48.414;9.872;2023-02-01T00:53:01;3.483887672;;3.483887672;;;;;;;
71550;SPS30;59367;48.414;9.872;2023-02-01T00:54:08;3.585031033;;3.585031033;;;;;;;
71550;SPS30;59367;48.414;9.872;2023-02-01T00:55:16;3.785175323;;3.785175323;;;;;;;
71550;SPS30;59367;48.414;9.872;2023-02-01T00:56:24;3.768921852;;3.768921852;;;;;;;
71550;SPS30;59367;48.414;9.872;2023-02-01T00:57:31;3.366548061;;3.366548061;;;;;;;
71550;SPS30;59367;48.414;9.872;2023-02-01T00:58:39;3.597450256;;3.597450256;;;;;;;
71550;SPS30;59367;48.414;9.872;2023-02-01T00:59:47;3.936090469;;3.935697794;;;;;;;
71550;SPS30;59367;48.414;9.872;2023-02-01T01:01:00;3.575080872;;3.575080872;;;;;;;
71550;SPS30;59367;48.414;9.872;2023-02-01T01:02:10;2.661014318;;2.661014318;;;;;;;
71550;SPS30;59367;48.414;9.872;2023-02-01T01:03:17;4.08489418;;4.08489418;;;;;;;
71550;SPS30;59367;48.414;9.872;2023-02-01T01:04:25;3.938965559;;3.923522234;;;;;;;
71550;SPS30;59367;48.414;9.872;2023-02-01T01:05:33;3.338482618;;3.338482618;;;;;;;
71550;SPS30;59367;48.414;9.872;2023-02-01T01:06:40;3.284221411;;3.284221411;;;;;;;
71550;SPS30;59367;48.414;9.872;2023-02-01T01:07:48;3.571346998;;3.571346998;;;;;;;
71550;SPS30;59367;48.414;9.872;2023-02-01T01:08:56;4.107367039;;4.093603134;;;;;;;
71550;SPS30;59367;48.414;9.872;2023-02-01T01:10:06;4.021951675;;4.006410599;;;;;;;
71550;SPS30;59367;48.414;9.872;2023-02-01T01:11:14;3.377984524;;3.377573967;;;;;;;
71550;SPS30;59367;48.414;9.872;2023-02-01T01:12:24;3.43098402;;3.43098402;;;;;;;
71550;SPS30;59367;48.414;9.872;2023-02-01T01:13:32;3.449416399;;3.449416399;;;;;;;
71550;SPS30;59367;48.414;9.872;2023-02-01T01:14:40;3.436322451;;3.436322451;;;;;;;
71550;SPS30;59367;48.414;9.872;2023-02-01T01:15:47;3.300876379;;3.300876379;;;;;;;
71550;SPS30;59367;48.414;9.872;2023-02-01T01:16:55;3.453691006;;3.453629255;;;;;;;
71550;SPS30;59367;48.414;9.872;2023-02-01T01:18:03;3.525324821;;3.525318146;;;;;;;
71550;SPS30;59367;48.414;9.872;2023-02-01T01:19:10;3.604281664;;3.604281664;;;;;;;
71550;SPS30;59367;48.414;9.872;2023-02-01T01:20:18;3.47249198;;3.47249198;;;;;;;
71550;SPS30;59367;48.414;9.872;2023-02-01T01:21:26;3.449591398;;3.449591398;;;;;;;
71550;SPS30;59367;48.414;9.872;2023-02-01T01:22:34;3.681981802;;3.681981802;;;;;;;
71550;SPS30;59367;48.414;9.872;2023-02-01T01:23:42;3.266630888;;3.266630888;;;;;;;
71550;SPS30;59367;48.414;9.872;2023-02-01T01:24:51;4.597206116;;4.597206116;;;;;;;
71550;SPS30;59367;48.414;9.872;2023-02-01T01:25:58;3.544791937;;3.544791937;;;;;;;
71550;SPS30;59367;48.414;9.872;2023-02-01T01:27:08;3.719172955;;3.719172955;;;;;;;
71550;SPS30;59367;48.414;9.872;2023-02-01T01:28:15;3.221622229;;3.221622229;;;;;;;
71550;SPS30;59367;48.414;9.872;2023-02-01T01:29:23;3.241687775;;3.241687775;;;;;;;
71550;SPS30;59367;48.414;9.872;2023-02-01T01:30:31;3.231640339;;3.231640339;;;;;;;
71550;SPS30;59367;48.414;9.872;2023-02-01T01:31:38;3.257294893;;3.257294893;;;;;;;
71550;SPS30;59367;48.414;9.872;2023-02-01T01:32:46;3.281961679;;3.281961679;;;;;;;
71550;SPS30;59367;48.414;9.872;2023-02-01T01:33:55;3.401195765;;3.401195765;;;;;;;
71550;SPS30;59367;48.414;9.872;2023-02-01T01:35:03;3.105679035;;3.105679035;;;;;;;
71550;SPS30;59367;48.414;9.872;2023-02-01T01:36:12;3.334241152;;3.334241152;;;;;;;
71550;SPS30;59367;48.414;9.872;2023-02-01T01:37:20;3.491230726;;3.491230726;;;;;;;
71550;SPS30;59367;48.414;9.872;2023-02-01T01:38:27;2.980558634;;2.980558634;;;;;;;
71550;SPS30;59367;48.414;9.872;2023-02-01T01:39:35;3.989418268;;3.989418268;;;;;;;
71550;SPS30;59367;48.414;9.872;2023-02-01T01:40:42;3.548907518;;3.548907518;;;;;;;
71550;SPS30;59367;48.414;9.872;2023-02-01T01:41:52;3.213898659;;3.213898659;;;;;;;
71550;SPS30;59367;48.414;9.872;2023-02-01T01:43:00;3.686629295;;3.686629295;;;;;;;
71550;SPS30;59367;48.414;9.872;2023-02-01T01:45:43;3.540264368;;3.540264368;;;;;;;
71550;SPS30;59367;48.414;9.872;2023-02-01T01:46:51;3.905998707;;3.905998707;;;;;;;
71550;SPS30;59367;48.414;9.872;2023-02-01T01:47:59;3.183964014;;3.183964014;;;;;;;
71550;SPS30;59367;48.414;9.872;2023-02-01T01:49:12;3.091389418;;3.091389418;;;;;;;
71550;SPS30;59367;48.414;9.872;2023-02-01T01:50:23;3.218009949;;3.218009949;;;;;;;
71550;SPS30;59367;48.414;9.872;2023-02-01T01:51:33;3.990852356;;3.990852356;;;;;;;
71550;SPS30;59367;48.414;9.872;2023-02-01T01:52:45;3.633847237;;3.633847237;;;;;;;
71550;SPS30;59367;48.414;9.872;2023-02-01T01:53:58;4.283762455;;4.283762455;;;;;;;
71550;SPS30;59367;48.414;9.872;2023-02-01T01:55:10;4.061991692;;4.061991692;;;;;;;
71550;SPS30;59367;48.414;9.872;2023-02-01T01:56:20;3.549218178;;3.549218178;;;;;;;
71550;SPS30;59367;48.414;9.872;2023-02-01T01:57:29;3.990106821;;3.990106821;;;;;;;
71550;SPS30;59367;48.414;9.872;2023-02-01T01:58:41;4.765735149;;4.765735149;;;;;;;
71550;SPS30;59367;48.414;9.872;2023-02-01T01:59:50;4.169626713;;4.169626713;;;;;;;
71550;SPS30;59367;48.414;9.872;2023-02-01T02:01:03;3.399157286;;3.389603615;;;;;;;
71550;SPS30;59367;48.414;9.872;2023-02-01T02:02:11;2.801275969;;2.801275969;;;;;;;
71550;SPS30;59367;48.414;9.872;2023-02-01T02:03:20;3.467438221;;3.467241049;;;;;;;
71550;SPS30;59367;48.414;9.872;2023-02-01T02:04:31;2.984428644;;2.984428644;;;;;;;
71550;SPS30;59367;48.414;9.872;2023-02-01T02:05:40;3.376661777;;3.376661777;;;;;;;
71550;SPS30;59367;48.414;9.872;2023-02-01T02:06:50;3.180948973;;3.180948973;;;;;;;
71550;SPS30;59367;48.414;9.872;2023-02-01T02:08:01;3.477798223;;3.477798223;;;;;;;
71550;SPS30;59367;48.414;9.872;2023-02-01T02:09:08;3.123325109;;3.123325109;;;;;;;
71550;SPS30;59367;48.414;9.872;2023-02-01T02:10:17;3.457467318;;3.457467318;;;;;;;
71550;SPS30;59367;48.414;9.872;2023-02-01T02:11:24;3.389081478;;3.389081478;;;;;;;
71550;SPS30;59367;48.414;9.872;2023-02-01T02:12:32;3.144879103;;3.144879103;;;;;;;
71550;SPS30;59367;48.414;9.872;2023-02-01T02:13:42;3.393872738;;3.393872738;;;;;;;
71550;SPS30;59367;48.414;9.872;2023-02-01T02:14:52;3.572473764;;3.572473764;;;;;;;
71550;SPS30;59367;48.414;9.872;2023-02-01T02:16:03;3.241348982;;3.241348982;;;;;;;
71550;SPS30;59367;48.414;9.872;2023-02-01T02:17:22;3.719158649;;3.719158649;;;;;;;
71550;SPS30;59367;48.414;9.872;2023-02-01T02:18:41;3.744653702;;3.744653702;;;;;;;
71550;SPS30;59367;48.414;9.872;2023-02-01T02:21:16;4.074658394;;4.074658394;;;;;;;
71550;SPS30;59367;48.414;9.872;2023-02-01T02:22:33;3.42196393;;3.42196393;;;;;;;
71550;SPS30;59367;48.414;9.872;2023-02-01T02:24:16;3.528017759;;3.528017759;;;;;;;
71550;SPS30;59367;48.414;9.872;2023-02-01T02:25:48;2.753545046;;2.753545046;;;;;;;
71550;SPS30;59367;48.414;9.872;2023-02-01T02:27:21;2.973101377;;2.938389778;;;;;;;
71550;SPS30;59367;48.414;9.872;2023-02-01T02:28:36;3.029418945;;3.020071268;;;;;;;
71550;SPS30;59367;48.414;9.872;2023-02-01T02:30:34;2.82804656;;2.821637154;;;;;;;
71550;SPS30;59367;48.414;9.872;2023-02-01T02:32:15;2.774226427;;2.774118185;;;;;;;
71550;SPS30;59367;48.414;9.872;2023-02-01T02:33:41;3.025263071;;3.025263071;;;;;;;
71550;SPS30;59367;48.414;9.872;2023-02-01T02:34:55;2.842773914;;2.842773914;;;;;;;
71550;SPS30;59367;48.414;9.872;2023-02-01T02:36:07;2.472401857;;2.471847057;;;;;;;
71550;SPS30;59367;48.414;9.872;2023-02-01T02:37:21;2.812405348;;2.812405348;;;;;;;
71550;SPS30;59367;48.414;9.872;2023-02-01T02:38:36;2.668189049;;2.668189049;;;;;;;
71550;SPS30;59367;48.414;9.872;2023-02-01T02:39:53;2.357598782;;2.357598782;;;;;;;
71550;SPS30;59367;48.414;9.872;2023-02-01T02:41:10;3.707010269;;3.69617033;;;;;;;
71550;SPS30;59367;48.414;9.872;2023-02-01T02:42:25;2.90129137;;2.896501541;;;;;;;
71550;SPS30;59367;48.414;9.872;2023-02-01T02:43:42;3.427904367;;3.427904367;;;;;;;
71550;SPS30;59367;48.414;9.872;2023-02-01T02:44:59;3.892956734;;3.892956734;;;;;;;
71550;SPS30;59367;48.414;9.872;2023-02-01T02:46:15;3.542304754;;3.539608717;;;;;;;
71550;SPS30;59367;48.414;9.872;2023-02-01T02:47:27;3.775263786;;3.756418228;;;;;;;
71550;SPS30;59367;48.414;9.872;2023-02-01T02:48:46;4.065516949;;4.065456867;;;;;;;
71550;SPS30;59367;48.414;9.872;2023-02-01T02:50:02;3.713258743;;3.708380699;;;;;;;
71550;SPS30;59367;48.414;9.872;2023-02-01T02:51:18;3.720772028;;3.720772028;;;;;;;
71550;SPS30;59367;48.414;9.872;2023-02-01T02:52:30;3.191803932;;3.191803932;;;;;;;
71550;SPS30;59367;48.414;9.872;2023-02-01T02:53:41;2.681967258;;2.681967258;;;;;;;
71550;SPS30;59367;48.414;9.872;2023-02-01T02:54:55;3.290548563;;3.254532814;;;;;;;
71550;SPS30;59367;48.414;9.872;2023-02-01T02:56:05;3.487132311;;3.487127781;;;;;;;
71550;SPS30;59367;48.414;9.872;2023-02-01T02:57:16;3.599198818;;3.599198818;;;;;;;
71550;SPS30;59367;48.414;9.872;2023-02-01T02:58:28;3.394515514;;3.394515514;;;;;;;
71550;SPS30;59367;48.414;9.872;2023-02-01T02:59:36;2.745161057;;2.745161057;;;;;;;
71550;SPS30;59367;48.414;9.872;2023-02-01T03:00:46;3.575806379;;3.575806379;;;;;;;
71550;SPS30;59367;48.414;9.872;2023-02-01T03:01:55;3.592456579;;3.592456579;;;;;;;
71550;SPS30;59367;48.414;9.872;2023-02-01T03:03:03;3.381432056;;3.381432056;;;;;;;
71550;SPS30;59367;48.414;9.872;2023-02-01T03:04:11;3.795796156;;3.795796156;;;;;;;
71550;SPS30;59367;48.414;9.872;2023-02-01T03:05:19;2.994777203;;2.994777203;;;;;;;
71550;SPS30;59367;48.414;9.872;2023-02-01T03:06:27;3.849693537;;3.849693537;;;;;;;
71550;SPS30;59367;48.414;9.872;2023-02-01T03:08:54;3.174516439;;3.174516439;;;;;;;
71550;SPS30;59367;48.414;9.872;2023-02-01T03:10:09;3.417508841;;3.417508841;;;;;;;
71550;SPS30;59367;48.414;9.872;2023-02-01T03:11:21;3.610710859;;3.610710859;;;;;;;
71550;SPS30;59367;48.414;9.872;2023-02-01T03:12:29;3.03980279;;3.03980279;;;;;;;
71550;SPS30;59367;48.414;9.872;2023-02-01T03:13:41;4.182335377;;4.182335377;;;;;;;
71550;SPS30;59367;48.414;9.872;2023-02-01T03:14:56;4.875441074;;4.875441074;;;;;;;
71550;SPS30;59367;48.414;9.872;2023-02-01T03:16:08;5.376284122;;5.376284122;;;;;;;
71550;SPS30;59367;48.414;9.872;2023-02-01T03:17:19;4.46503067;;4.450763226;;;;;;;
71550;SPS30;59367;48.414;9.872;2023-02-01T03:18:32;4.693585396;;4.689370155;;;;;;;
71550;SPS30;59367;48.414;9.872;2023-02-01T03:19:46;4.615592957;;4.615592957;;;;;;;
71550;SPS30;59367;48.414;9.872;2023-02-01T03:20:57;4.193321228;;4.193321228;;;;;;;
71550;SPS30;59367;48.414;9.872;2023-02-01T03:22:08;4.238638878;;4.238638878;;;;;;;
71550;SPS30;59367;48.414;9.872;2023-02-01T03:23:21;4.685447216;;4.685447216;;;;;;;
71550;SPS30;59367;48.414;9.872;2023-02-01T03:24:33;5.269182682;;5.269182682;;;;;;;
71550;SPS30;59367;48.414;9.872;2023-02-01T03:25:42;5.29902029;;5.29902029;;;;;;;
71550;SPS30;59367;48.414;9.872;2023-02-01T03:26:53;4.606851101;;4.606851101;;;;;;;
71550;SPS30;59367;48.414;9.872;2023-02-01T03:28:06;5.185468197;;5.185468197;;;;;;;
71550;SPS30;59367;48.414;9.872;2023-02-01T03:29:21;5.385160446;;5.385160446;;;;;;;
71550;SPS30;59367;48.414;9.872;2023-02-01T03:30:35;5.804167271;;5.804167271;;;;;;;
71550;SPS30;59367;48.414;9.872;2023-02-01T03:31:45;4.954230785;;4.954230785;;;;;;;
71550;SPS30;59367;48.414;9.872;2023-02-01T03:32:54;5.20204401;;5.20204401;;;;;;;
71550;SPS30;59367;48.414;9.872;2023-02-01T03:34:04;5.865353107;;5.865353107;;;;;;;
71550;SPS30;59367;48.414;9.872;2023-02-01T03:35:12;4.931990623;;4.931990623;;;;;;;
71550;SPS30;59367;48.414;9.872;2023-02-01T03:36:23;4.861872196;;4.861872196;;;;;;;
71550;SPS30;59367;48.414;9.872;2023-02-01T03:37:34;4.997909546;;4.997909546;;;;;;;
71550;SPS30;59367;48.414;9.872;2023-02-01T03:38:42;5.265164375;;5.265164375;;;;;;;
71550;SPS30;59367;48.414;9.872;2023-02-01T03:40:00;5.494967461;;5.494967461;;;;;;;
71550;SPS30;59367;48.414;9.872;2023-02-01T03:41:13;5.648487568;;5.648487568;;;;;;;
71550;SPS30;59367;48.414;9.872;2023-02-01T03:42:28;5.890268803;;5.890268803;;;;;;;
71550;SPS30;59367;48.414;9.872;2023-02-01T03:43:42;6.096092701;;6.096092701;;;;;;;
71550;SPS30;59367;48.414;9.872;2023-02-01T03:44:57;5.940293789;;5.940293789;;;;;;;
71550;SPS30;59367;48.414;9.872;2023-02-01T03:46:11;6.201610565;;6.201610565;;;;;;;
71550;SPS30;59367;48.414;9.872;2023-02-01T03:47:25;5.509643555;;5.509643555;;;;;;;
71550;SPS30;59367;48.414;9.872;2023-02-01T03:48:37;6.380810261;;6.380810261;;;;;;;
71550;SPS30;59367;48.414;9.872;2023-02-01T03:49:48;6.576371193;;6.576371193;;;;;;;
71550;SPS30;59367;48.414;9.872;2023-02-01T03:51:00;6.246705532;;6.246705532;;;;;;;
71550;SPS30;59367;48.414;9.872;2023-02-01T03:52:11;6.331745625;;6.315133095;;;;;;;
71550;SPS30;59367;48.414;9.872;2023-02-01T03:53:22;6.569660664;;6.569660664;;;;;;;
71550;SPS30;59367;48.414;9.872;2023-02-01T03:54:31;6.430337906;;6.430337906;;;;;;;
71550;SPS30;59367;48.414;9.872;2023-02-01T03:55:40;6.557116032;;6.537213326;;;;;;;
71550;SPS30;59367;48.414;9.872;2023-02-01T03:56:49;7.078477859;;7.076256275;;;;;;;
71550;SPS30;59367;48.414;9.872;2023-02-01T03:58:01;6.805097103;;6.795482635;;;;;;;
71550;SPS30;59367;48.414;9.872;2023-02-01T03:59:11;5.801785469;;5.801729679;;;;;;;
71550;SPS30;59367;48.414;9.872;2023-02-01T04:00:20;6.597416878;;6.597416878;;;;;;;
71550;SPS30;59367;48.414;9.872;2023-02-01T04:01:30;6.21904707;;6.21904707;;;;;;;
71550;SPS30;59367;48.414;9.872;2023-02-01T04:02:38;6.075009346;;6.075009346;;;;;;;
71550;SPS30;59367;48.414;9.872;2023-02-01T04:03:46;6.842803478;;6.842803478;;;;;;;
71550;SPS30;59367;48.414;9.872;2023-02-01T04:04:53;6.666651249;;6.666651249;;;;;;;
71550;SPS30;59367;48.414;9.872;2023-02-01T04:06:01;6.398088455;;6.398088455;;;;;;;
71550;SPS30;59367;48.414;9.872;2023-02-01T04:07:09;6.769178867;;6.769178867;;;;;;;
71550;SPS30;59367;48.414;9.872;2023-02-01T04:08:18;5.655473232;;5.655473232;;;;;;;
71550;SPS30;59367;48.414;9.872;2023-02-01T04:09:26;6.909719467;;6.909719467;;;;;;;
71550;SPS30;59367;48.414;9.872;2023-02-01T04:10:34;6.098651409;;6.098651409;;;;;;;
71550;SPS30;59367;48.414;9.872;2023-02-01T04:11:42;6.310159206;;6.310159206;;;;;;;
71550;SPS30;59367;48.414;9.872;2023-02-01T04:12:50;6.339524746;;6.339524746;;;;;;;
71550;SPS30;59367;48.414;9.872;2023-02-01T04:13:58;5.567890167;;5.567890167;;;;;;;
71550;SPS30;59367;48.414;9.872;2023-02-01T04:15:05;6.460618496;;6.460618496;;;;;;;
71550;SPS30;59367;48.414;9.872;2023-02-01T04:16:14;7.032485962;;7.032485962;;;;;;;
71550;SPS30;59367;48.414;9.872;2023-02-01T04:17:21;6.556379795;;6.556379795;;;;;;;
71550;SPS30;59367;48.414;9.872;2023-02-01T04:18:29;6.788196087;;6.788196087;;;;;;;
71550;SPS30;59367;48.414;9.872;2023-02-01T04:19:37;5.918581963;;5.918581963;;;;;;;
71550;SPS30;59367;48.414;9.872;2023-02-01T04:20:45;7.143911839;;7.116805077;;;;;;;
71550;SPS30;59367;48.414;9.872;2023-02-01T04:21:53;6.158819675;;6.158819675;;;;;;;
71550;SPS30;59367;48.414;9.872;2023-02-01T04:23:00;6.931059361;;6.931059361;;;;;;;
71550;SPS30;59367;48.414;9.872;2023-02-01T04:24:09;6.818367481;;6.818367481;;;;;;;
71550;SPS30;59367;48.414;9.872;2023-02-01T04:25:16;6.059178829;;6.059178829;;;;;;;
71550;SPS30;59367;48.414;9.872;2023-02-01T04:26:24;5.728507042;;5.71791935;;;;;;;
71550;SPS30;59367;48.414;9.872;2023-02-01T04:27:31;6.517240047;;6.38751173;;;;;;;
71550;SPS30;59367;48.414;9.872;2023-02-01T04:28:39;7.262579441;;7.253879547;;;;;;;
71550;SPS30;59367;48.414;9.872;2023-02-01T04:29:47;5.714001179;;5.714001179;;;;;;;
71550;SPS30;59367;48.414;9.872;2023-02-01T04:30:55;6.072516441;;6.072516441;;;;;;;
71550;SPS30;59367;48.414;9.872;2023-02-01T04:32:03;4.953632355;;4.953632355;;;;;;;
71550;SPS30;59367;48.414;9.872;2023-02-01T04:33:11;5.601936817;;5.60189724;;;;;;;
71550;SPS30;59367;48.414;9.872;2023-02-01T04:34:19;4.829658031;;4.829658031;;;;;;;
71550;SPS30;59367;48.414;9.872;2023-02-01T04:35:27;3.860293865;;3.860293865;;;;;;;
71550;SPS30;59367;48.414;9.872;2023-02-01T04:36:34;4.403654099;;4.403654099;;;;;;;
71550;SPS30;59367;48.414;9.872;2023-02-01T04:37:42;4.624372482;;4.624372482;;;;;;;
71550;SPS30;59367;48.414;9.872;2023-02-01T04:38:50;5.368310928;;5.368310928;;;;;;;
71550;SPS30;59367;48.414;9.872;2023-02-01T04:39:58;5.016826153;;5.016826153;;;;;;;
71550;SPS30;59367;48.414;9.872;2023-02-01T04:41:06;4.59139204;;4.59139204;;;;;;;
71550;SPS30;59367;48.414;9.872;2023-02-01T04:42:13;4.621453762;;4.621453762;;;;;;;
71550;SPS30;59367;48.414;9.872;2023-02-01T04:43:21;5.393359184;;5.393359184;;;;;;;
71550;SPS30;59367;48.414;9.872;2023-02-01T04:44:28;4.738260269;;4.727764606;;;;;;;
71550;SPS30;59367;48.414;9.872;2023-02-01T04:45:36;4.558928013;;4.558928013;;;;;;;
71550;SPS30;59367;48.414;9.872;2023-02-01T04:46:44;4.934528828;;4.934528828;;;;;;;
71550;SPS30;59367;48.414;9.872;2023-02-01T04:47:52;5.223840714;;5.223840714;;;;;;;
71550;SPS30;59367;48.414;9.872;2023-02-01T04:48:59;6.446557045;;6.446557045;;;;;;;
71550;SPS30;59367;48.414;9.872;2023-02-01T04:50:08;5.756875038;;5.754480362;;;;;;;
71550;SPS30;59367;48.414;9.872;2023-02-01T04:51:16;5.550033569;;5.546067715;;;;;;;
71550;SPS30;59367;48.414;9.872;2023-02-01T04:52:23;4.812438011;;4.812438011;;;;;;;
71550;SPS30;59367;48.414;9.872;2023-02-01T04:53:31;5.579938889;;5.579938889;;;;;;;
71550;SPS30;59367;48.414;9.872;2023-02-01T04:54:38;4.945976734;;4.945976734;;;;;;;
71550;SPS30;59367;48.414;9.872;2023-02-01T04:55:47;4.774190426;;4.774190426;;;;;;;
71550;SPS30;59367;48.414;9.872;2023-02-01T04:56:55;5.143118858;;5.088139057;;;;;;;
71550;SPS30;59367;48.414;9.872;2023-02-01T04:58:03;4.057518482;;4.02401638;;;;;;;
71550;SPS30;59367;48.414;9.872;2023-02-01T04:59:11;3.966276169;;3.924443722;;;;;;;
71550;SPS30;59367;48.414;9.872;2023-02-01T05:00:19;3.865864277;;3.840386868;;;;;;;
71550;SPS30;59367;48.414;9.872;2023-02-01T05:01:28;3.621355295;;3.588572741;;;;;;;
71550;SPS30;59367;48.414;9.872;2023-02-01T05:02:35;4.167324066;;4.165132999;;;;;;;
71550;SPS30;59367;48.414;9.872;2023-02-01T05:03:43;3.820069313;;3.820069313;;;;;;;
71550;SPS30;59367;48.414;9.872;2023-02-01T05:04:50;4.048596859;;4.048596859;;;;;;;
71550;SPS30;59367;48.414;9.872;2023-02-01T05:05:58;4.013665676;;4.013665676;;;;;;;
71550;SPS30;59367;48.414;9.872;2023-02-01T05:07:06;4.152163029;;4.152163029;;;;;;;
71550;SPS30;59367;48.414;9.872;2023-02-01T05:08:14;3.418178558;;3.418178558;;;;;;;
71550;SPS30;59367;48.414;9.872;2023-02-01T05:09:21;3.491714001;;3.491714001;;;;;;;
71550;SPS30;59367;48.414;9.872;2023-02-01T05:10:29;4.181250095;;4.181250095;;;;;;;
71550;SPS30;59367;48.414;9.872;2023-02-01T05:11:37;3.559077263;;3.559077263;;;;;;;
71550;SPS30;59367;48.414;9.872;2023-02-01T05:12:46;4.639839649;;4.639839649;;;;;;;
71550;SPS30;59367;48.414;9.872;2023-02-01T05:13:53;3.605136871;;3.605136871;;;;;;;
71550;SPS30;59367;48.414;9.872;2023-02-01T05:15:02;3.752922058;;3.732347012;;;;;;;
71550;SPS30;59367;48.414;9.872;2023-02-01T05:16:10;4.070522785;;4.070522785;;;;;;;
71550;SPS30;59367;48.414;9.872;2023-02-01T05:17:18;4.569107533;;4.569107533;;;;;;;
71550;SPS30;59367;48.414;9.872;2023-02-01T05:18:25;3.606502295;;3.606502295;;;;;;;
71550;SPS30;59367;48.414;9.872;2023-02-01T05:19:33;3.534170151;;3.534170151;;;;;;;
71550;SPS30;59367;48.414;9.872;2023-02-01T05:20:40;4.335867882;;4.335867882;;;;;;;
71550;SPS30;59367;48.414;9.872;2023-02-01T05:21:48;4.706650257;;4.706650257;;;;;;;
71550;SPS30;59367;48.414;9.872;2023-02-01T05:22:56;3.932169914;;3.932169914;;;;;;;
71550;SPS30;59367;48.414;9.872;2023-02-01T05:24:03;4.262403011;;4.262403011;;;;;;;
71550;SPS30;59367;48.414;9.872;2023-02-01T05:25:12;4.560519695;;4.560519695;;;;;;;
71550;SPS30;59367;48.414;9.872;2023-02-01T05:26:20;4.050067425;;4.050067425;;;;;;;
71550;SPS30;59367;48.414;9.872;2023-02-01T05:27:28;4.522789478;;4.522789478;;;;;;;
71550;SPS30;59367;48.414;9.872;2023-02-01T05:28:36;4.290008068;;4.290008068;;;;;;;
71550;SPS30;59367;48.414;9.872;2023-02-01T05:29:43;5.028927803;;5.028927803;;;;;;;
71550;SPS30;59367;48.414;9.872;2023-02-01T05:30:51;4.59924078;;4.59924078;;;;;;;
71550;SPS30;59367;48.414;9.872;2023-02-01T05:31:59;5.4836936;;5.4836936;;;;;;;
71550;SPS30;59367;48.414;9.872;2023-02-01T05:33:07;4.173269272;;4.173269272;;;;;;;
71550;SPS30;59367;48.414;9.872;2023-02-01T05:34:14;4.481466293;;4.481466293;;;;;;;
71550;SPS30;59367;48.414;9.872;2023-02-01T05:35:22;4.703827381;;4.703827381;;;;;;;
71550;SPS30;59367;48.414;9.872;2023-02-01T05:36:30;4.385368347;;4.385368347;;;;;;;
71550;SPS30;59367;48.414;9.872;2023-02-01T05:37:38;4.874607086;;4.874607086;;;;;;;
71550;SPS30;59367;48.414;9.872;2023-02-01T05:38:45;4.934707165;;4.905735493;;;;;;;
71550;SPS30;59367;48.414;9.872;2023-02-01T05:39:53;4.62513876;;4.625032425;;;;;;;